Time;durP1;ratioP1;P1;durP2;ratioP2;P2;SDS_P1;SDS_P2;PMS_P1;PMS_P2;Temp;Humidity;BMP_temperature;BMP_pressure;BME280_temperature;BME280_humidity;BME280_pressure;Samples;Min_cycle;Max_cycle;Signal;HPM_P1;HPM_P2
2022/06/04 00:00:58;;;;;;;7.95;6.13;;;15.40;99.90;;;-146.41;100.00;57768.22;5007809;28;20133;-70
2022/06/04 00:03:27;;;;;;;8.23;6.53;;;15.40;99.90;;;-146.41;100.00;57768.22;4999075;28;20145;-70
2022/06/04 00:05:57;;;;;;;10.88;7.18;;;15.30;99.90;;;-146.41;100.00;57768.22;5011976;28;20097;-70
2022/06/04 00:08:26;;;;;;;10.05;9.00;;;15.20;99.90;;;-146.41;100.00;57768.22;4996690;28;20116;-70
2022/06/04 00:16:29;;;;;;;8.70;7.85;;;15.30;99.90;;;-146.41;100.00;57768.22;5013577;28;20052;-70
2022/06/04 00:18:57;;;;;;;7.55;6.85;;;15.40;99.90;;;-146.41;100.00;57768.22;5011277;28;20050;-70
2022/06/04 00:21:25;;;;;;;7.63;6.55;;;15.30;99.90;;;-146.41;100.00;57768.22;5009759;28;20141;-70
2022/06/04 00:23:53;;;;;;;7.03;6.30;;;15.20;99.90;;;-146.41;100.00;57768.22;5012904;28;20093;-70
2022/06/04 00:26:20;;;;;;;6.68;5.97;;;15.20;99.90;;;-146.41;100.00;57768.22;4994107;28;20053;-70
2022/06/04 00:28:47;;;;;;;7.70;6.80;;;15.10;99.90;;;-146.41;100.00;57768.22;5007796;28;20048;-70
2022/06/04 00:31:17;;;;;;;8.35;6.72;;;15.10;99.90;;;-146.41;100.00;57768.22;5012993;28;20523;-70
2022/06/04 00:33:45;;;;;;;10.00;7.30;;;15.20;99.90;;;-146.41;100.00;57768.22;5011562;28;20068;-70
2022/06/04 00:36:13;;;;;;;8.05;7.22;;;15.10;99.90;;;-146.41;100.00;57768.22;5017839;28;20129;-70
2022/06/04 00:38:40;;;;;;;7.97;6.20;;;15.10;99.90;;;-146.41;100.00;57768.22;5013054;28;20181;-70
2022/06/04 00:41:29;;;;;;;9.50;6.50;;;15.20;99.90;;;-146.41;100.00;57768.22;5011670;28;20140;-70
2022/06/04 00:44:23;;;;;;;8.82;7.65;;;15.20;99.90;;;-146.41;100.00;57768.22;5013155;28;20069;-70
2022/06/04 00:47:01;;;;;;;7.40;6.30;;;15.20;99.90;;;-146.41;100.00;57768.22;4996380;28;20050;-70
2022/06/04 00:49:28;;;;;;;6.90;5.78;;;15.00;99.90;;;-146.41;100.00;57768.22;5011949;28;20527;-70
2022/06/04 00:52:06;;;;;;;7.18;6.47;;;14.90;99.90;;;-146.41;100.00;57768.22;5013208;28;20041;-70
2022/06/04 00:54:33;;;;;;;7.00;5.78;;;14.90;99.90;;;-146.41;100.00;57768.22;5013535;28;20450;-69
2022/06/04 00:57:15;;;;;;;5.88;5.25;;;15.00;99.90;;;-146.41;100.00;57768.22;5008831;28;20080;-70
2022/06/04 01:00:10;;;;;;;6.05;5.40;;;15.00;99.90;;;-146.41;100.00;57768.22;5004760;28;21741;-70
2022/06/04 01:03:07;;;;;;;6.43;5.60;;;15.10;99.90;;;-146.41;100.00;57768.22;5009951;28;20049;-70
2022/06/04 01:06:24;;;;;;;8.63;7.30;;;15.00;99.90;;;-146.41;100.00;57768.22;5007887;28;20052;-71
2022/06/04 01:09:12;;;;;;;5.63;5.13;;;15.00;99.90;;;-146.41;100.00;57768.22;5009485;28;20073;-70
2022/06/04 01:12:09;;;;;;;8.35;6.82;;;14.90;99.90;;;-146.41;100.00;57768.22;4991252;28;20050;-70
2022/06/04 01:14:52;;;;;;;9.35;8.35;;;14.80;99.90;;;-146.41;100.00;57768.22;5009674;28;20131;-70
2022/06/04 01:17:34;;;;;;;11.18;9.85;;;14.80;99.90;;;-146.41;100.00;57768.22;5013540;28;20046;-70
2022/06/04 01:20:28;;;;;;;7.67;6.20;;;14.80;99.90;;;-146.41;100.00;57768.22;5012352;28;20164;-70
2022/06/04 01:23:40;;;;;;;10.00;7.97;;;14.70;99.90;;;-146.41;100.00;57768.22;4995155;28;20084;-70
2022/06/04 01:26:15;;;;;;;9.35;8.45;;;14.50;99.90;;;-146.41;100.00;57768.22;5007729;28;20092;-69
2022/06/04 01:29:01;;;;;;;10.77;9.68;;;14.50;99.90;;;-146.41;100.00;57768.22;5010290;28;20133;-69
2022/06/04 01:31:37;;;;;;;12.80;10.27;;;14.50;99.90;;;-146.41;100.00;57768.22;5009597;28;20328;-69
2022/06/04 01:34:09;;;;;;;8.85;7.90;;;14.60;99.90;;;-146.41;100.00;57768.22;4990840;28;20731;-69
2022/06/04 01:36:54;;;;;;;7.13;5.32;;;14.60;99.90;;;-146.41;100.00;57768.22;4993464;28;20070;-70
2022/06/04 01:39:26;;;;;;;8.52;7.55;;;14.60;99.90;;;-146.41;100.00;57768.22;5010372;28;20080;-70
2022/06/04 01:42:00;;;;;;;6.82;6.13;;;14.60;99.90;;;-146.41;100.00;57768.22;4995597;28;20137;-69
2022/06/04 01:44:37;;;;;;;9.07;7.50;;;14.60;99.90;;;-146.41;100.00;57768.22;4990864;28;20579;-69
2022/06/04 01:47:05;;;;;;;5.60;5.07;;;14.70;99.90;;;-146.41;100.00;57768.22;4994088;28;20136;-69
2022/06/04 01:49:50;;;;;;;6.30;5.22;;;14.60;99.90;;;-146.41;100.00;57768.22;5011885;28;20055;-70
2022/06/04 01:52:33;;;;;;;8.70;7.07;;;14.60;99.90;;;-146.41;100.00;57768.22;4992054;28;20038;-69
2022/06/04 01:55:19;;;;;;;9.57;8.38;;;14.60;99.90;;;-146.41;100.00;57768.22;4995297;28;20137;-69
2022/06/04 01:58:00;;;;;;;5.88;5.03;;;14.60;99.90;;;-146.41;100.00;57768.22;4990900;28;20069;-70
2022/06/04 02:00:40;;;;;;;5.13;4.60;;;14.50;99.90;;;-146.41;100.00;57768.22;5006822;28;20103;-70
2022/06/04 02:03:19;;;;;;;7.40;5.05;;;14.50;99.90;;;-146.41;100.00;57768.22;4980781;28;20046;-69
2022/06/04 02:05:56;;;;;;;6.68;4.47;;;14.40;99.90;;;-146.41;100.00;57768.22;4970642;28;20141;-68
2022/06/04 02:08:43;;;;;;;6.32;5.25;;;14.50;99.90;;;-146.41;100.00;57768.22;4992789;28;20054;-69
2022/06/04 02:11:18;;;;;;;6.43;5.05;;;14.60;99.90;;;-146.41;100.00;57768.22;4993073;28;20070;-69
2022/06/04 02:13:48;;;;;;;7.00;4.80;;;14.60;99.90;;;-146.41;100.00;57768.22;4993007;28;20500;-69
2022/06/04 02:16:38;;;;;;;8.52;5.22;;;14.60;99.90;;;-146.41;100.00;57768.22;5007324;28;20061;-69
2022/06/04 02:19:06;;;;;;;5.20;4.70;;;14.60;99.90;;;-146.41;100.00;57768.22;5006219;28;20100;-69
2022/06/04 02:21:33;;;;;;;6.35;4.63;;;14.60;99.90;;;-146.41;100.00;57768.22;5007442;28;20069;-69
2022/06/04 02:24:01;;;;;;;9.25;7.40;;;14.60;99.90;;;-146.41;100.00;57768.22;4993387;28;20228;-70
2022/06/04 02:26:29;;;;;;;6.05;5.40;;;14.60;99.90;;;-146.41;100.00;57768.22;4993510;28;20519;-69
2022/06/04 02:28:58;;;;;;;6.90;4.72;;;14.60;99.90;;;-146.41;100.00;57768.22;5009871;28;20102;-69
2022/06/04 02:31:47;;;;;;;5.32;4.82;;;14.60;99.90;;;-146.41;100.00;57768.22;5006732;28;20045;-69
2022/06/04 02:34:25;;;;;;;4.78;4.28;;;14.50;99.90;;;-146.41;100.00;57768.22;5011546;28;20050;-70
2022/06/04 02:37:15;;;;;;;7.85;4.40;;;14.50;99.90;;;-146.41;100.00;57768.22;5006514;28;20112;-68
2022/06/04 02:39:57;;;;;;;4.80;4.07;;;14.60;99.90;;;-146.41;100.00;57768.22;4990517;28;20077;-68
2022/06/04 02:42:33;;;;;;;5.68;4.80;;;14.50;99.90;;;-146.41;100.00;57768.22;5008193;28;20188;-68
2022/06/04 02:45:20;;;;;;;6.55;4.85;;;14.40;99.90;;;-146.41;100.00;57768.22;4989765;28;20085;-69
2022/06/04 02:48:00;;;;;;;8.15;5.03;;;14.40;99.90;;;-146.41;100.00;57768.22;5005047;28;20128;-69
2022/06/04 02:50:55;;;;;;;7.72;5.50;;;14.40;99.90;;;-146.41;100.00;57768.22;4992180;28;20492;-69
2022/06/04 02:53:23;;;;;;;9.80;6.63;;;14.40;99.90;;;-146.41;100.00;57768.22;4995064;28;20251;-68
2022/06/04 02:56:05;;;;;;;7.53;6.72;;;14.40;99.90;;;-146.41;100.00;57768.22;4989497;28;20241;-68
2022/06/04 02:58:34;;;;;;;7.72;6.93;;;14.40;99.90;;;-146.41;100.00;57768.22;5008130;28;20499;-69
2022/06/04 03:01:04;;;;;;;7.03;5.97;;;14.40;99.90;;;-146.41;100.00;57768.22;5006842;28;20448;-68
2022/06/04 03:03:31;;;;;;;6.00;5.40;;;14.30;99.90;;;-146.41;100.00;57768.22;4989866;28;20084;-70
2022/06/04 03:06:01;;;;;;;7.35;6.65;;;14.30;99.90;;;-146.41;100.00;57768.22;5003290;28;20140;-70
2022/06/04 03:08:32;;;;;;;8.10;7.15;;;14.30;99.90;;;-146.41;100.00;57768.22;5006764;28;20139;-70
2022/06/04 03:11:00;;;;;;;6.75;5.82;;;14.30;99.90;;;-146.41;100.00;57768.22;4991763;28;20501;-68
2022/06/04 03:13:27;;;;;;;7.68;4.95;;;14.30;99.90;;;-146.41;100.00;57768.22;5013778;28;20164;-69
2022/06/04 03:15:53;;;;;;;5.10;4.60;;;14.30;99.90;;;-146.41;100.00;57768.22;5005861;28;20073;-69
2022/06/04 03:18:20;;;;;;;4.25;3.85;;;14.30;99.90;;;-146.41;100.00;57768.22;5008371;28;20046;-68
2022/06/04 03:20:48;;;;;;;6.80;4.32;;;14.30;99.90;;;-146.41;100.00;57768.22;5008016;28;20050;-69
2022/06/04 03:23:15;;;;;;;6.68;4.93;;;14.30;99.90;;;-146.41;100.00;57768.22;4989840;28;20046;-69
2022/06/04 03:25:42;;;;;;;6.47;5.82;;;14.40;99.90;;;-146.41;100.00;57768.22;5008661;28;20085;-68
2022/06/04 03:28:09;;;;;;;5.97;5.22;;;14.40;99.90;;;-146.41;100.00;57768.22;5003664;28;20489;-69
2022/06/04 03:30:38;;;;;;;4.70;4.05;;;14.30;99.90;;;-146.41;100.00;57768.22;5003735;28;20038;-69
2022/06/04 03:33:07;;;;;;;6.70;5.30;;;14.40;99.90;;;-146.41;100.00;57768.22;5005658;28;20045;-69
2022/06/04 03:35:35;;;;;;;7.68;6.30;;;14.40;99.90;;;-146.41;100.00;57768.22;5008362;28;20235;-69
2022/06/04 03:38:02;;;;;;;7.45;6.53;;;14.30;99.90;;;-146.41;100.00;57768.22;5008847;28;20061;-69
2022/06/04 03:40:29;;;;;;;7.75;5.40;;;14.30;99.90;;;-146.41;100.00;57768.22;5007211;28;20057;-69
2022/06/04 03:42:56;;;;;;;9.40;7.63;;;14.30;99.90;;;-146.41;100.00;57768.22;5010416;28;20141;-69
2022/06/04 03:45:27;;;;;;;9.88;7.30;;;14.20;99.90;;;-146.41;100.00;57768.22;5006133;28;20113;-69
2022/06/04 03:47:56;;;;;;;11.38;6.68;;;14.10;99.90;;;-146.41;100.00;57768.22;5005156;28;20050;-69
2022/06/04 03:50:29;;;;;;;8.95;6.45;;;14.10;99.90;;;-146.41;100.00;57768.22;5010068;28;20119;-69
2022/06/04 03:52:56;;;;;;;5.88;5.07;;;14.10;99.90;;;-146.41;100.00;57768.22;5008809;28;20073;-69
2022/06/04 03:55:25;;;;;;;6.93;5.57;;;14.20;99.90;;;-146.41;100.00;57768.22;5005458;28;20517;-69
2022/06/04 03:57:52;;;;;;;7.35;5.38;;;14.20;99.90;;;-146.41;100.00;57768.22;5011245;28;20128;-69
2022/06/04 04:00:24;;;;;;;6.47;5.80;;;14.30;99.90;;;-146.41;100.00;57768.22;5003617;28;20479;-69
2022/06/04 04:03:14;;;;;;;6.60;5.15;;;14.40;99.90;;;-146.41;100.00;57768.22;5004738;28;20133;-69
2022/06/04 04:05:50;;;;;;;6.47;4.35;;;14.30;99.90;;;-146.41;100.00;57768.22;5006518;28;20049;-69
2022/06/04 04:08:21;;;;;;;6.25;5.30;;;14.40;99.90;;;-146.41;100.00;57768.22;5008173;28;20045;-69
2022/06/04 04:10:48;;;;;;;7.35;6.60;;;14.40;99.90;;;-146.41;100.00;57768.22;5008406;28;20077;-69
2022/06/04 04:13:18;;;;;;;7.28;6.57;;;14.40;99.90;;;-146.41;100.00;57768.22;5007401;28;20387;-69
2022/06/04 04:15:45;;;;;;;9.80;7.10;;;14.60;99.90;;;-146.41;100.00;57768.22;4991925;28;20157;-69
2022/06/04 04:18:13;;;;;;;5.70;4.85;;;14.70;99.90;;;-146.41;100.00;57768.22;5008929;28;20157;-68
2022/06/04 04:20:45;;;;;;;5.03;4.43;;;14.80;99.90;;;-146.41;100.00;57768.22;5005302;28;20129;-69
2022/06/04 04:23:12;;;;;;;4.72;3.83;;;14.90;99.90;;;-146.41;100.00;57768.22;5012619;28;20569;-69
2022/06/04 04:25:39;;;;;;;6.03;4.93;;;15.00;99.90;;;-146.41;100.00;57768.22;5015168;28;20140;-71
2022/06/04 04:28:07;;;;;;;6.15;4.10;;;15.00;99.90;;;-146.41;100.00;57768.22;5010270;28;20136;-70
2022/06/04 04:30:35;;;;;;;7.70;4.47;;;15.00;99.90;;;-146.41;100.00;57768.22;4994077;28;20041;-70
2022/06/04 04:33:05;;;;;;;6.72;5.60;;;15.00;99.90;;;-146.41;100.00;57768.22;5010662;28;20147;-70
2022/06/04 04:35:34;;;;;;;9.23;6.78;;;15.00;99.90;;;-146.41;100.00;57768.22;4990422;28;20074;-70
2022/06/04 04:38:02;;;;;;;9.25;7.57;;;15.10;99.90;;;-146.41;100.00;57768.22;5012537;28;20053;-70
2022/06/04 04:40:31;;;;;;;8.23;7.05;;;15.30;99.90;;;-146.41;100.00;57768.22;5013021;28;20088;-70
2022/06/04 04:42:59;;;;;;;6.07;4.55;;;15.50;99.90;;;-146.41;100.00;57768.22;5009628;28;20103;-70
2022/06/04 04:45:27;;;;;;;5.32;3.50;;;15.60;99.90;;;-146.41;100.00;57768.22;5010737;28;20157;-70
2022/06/04 04:47:56;;;;;;;4.03;3.25;;;15.70;99.90;;;-146.41;100.00;57768.22;5009868;28;20116;-70
2022/06/04 04:50:38;;;;;;;5.28;4.53;;;15.90;99.90;;;-146.41;100.00;57768.22;5008653;28;20048;-70
2022/06/04 04:53:11;;;;;;;4.35;3.92;;;16.00;99.90;;;-146.41;100.00;57768.22;4995227;28;20137;-70
2022/06/04 04:55:38;;;;;;;4.72;3.95;;;16.10;99.90;;;-146.41;100.00;57768.22;5009987;28;20153;-70
2022/06/04 04:58:06;;;;;;;5.40;3.40;;;16.10;99.90;;;-146.41;100.00;57768.22;5011161;28;20532;-70
2022/06/04 05:00:34;;;;;;;4.10;3.00;;;16.30;99.90;;;-146.41;100.00;57768.22;5014976;28;20069;-70
2022/06/04 05:03:02;;;;;;;8.43;4.40;;;16.40;99.90;;;-146.41;100.00;57768.22;5010354;28;20150;-70
2022/06/04 05:05:29;;;;;;;6.57;4.22;;;16.60;99.90;;;-146.41;100.00;57768.22;5009013;28;20076;-71
2022/06/04 05:07:57;;;;;;;6.80;3.90;;;16.50;99.90;;;-146.41;100.00;57768.22;5011982;28;20069;-70
2022/06/04 05:10:24;;;;;;;8.40;4.43;;;16.60;99.90;;;-146.41;100.00;57768.22;5011125;28;20126;-70
2022/06/04 05:12:56;;;;;;;6.85;4.30;;;16.70;99.90;;;-146.41;100.00;57768.22;5008801;28;20085;-70
2022/06/04 05:15:23;;;;;;;7.05;4.78;;;16.70;99.90;;;-146.41;100.00;57768.22;5011365;28;20128;-70
2022/06/04 05:17:50;;;;;;;6.18;5.10;;;16.80;99.90;;;-146.41;100.00;57768.22;5009510;28;20120;-70
2022/06/04 05:20:18;;;;;;;7.28;6.47;;;16.90;99.90;;;-146.41;100.00;57768.22;5014855;28;20064;-70
2022/06/04 05:22:45;;;;;;;7.25;6.20;;;16.90;99.90;;;-146.41;100.00;57768.22;5009337;28;20155;-70
2022/06/04 05:25:13;;;;;;;8.98;5.65;;;17.00;99.90;;;-146.41;100.00;57768.22;4994414;28;20791;-70
2022/06/04 05:27:40;;;;;;;7.97;5.63;;;17.00;99.90;;;-146.41;100.00;57768.22;5016086;28;20050;-70
2022/06/04 05:30:07;;;;;;;5.47;4.93;;;17.10;99.90;;;-146.41;100.00;57768.22;5009618;28;20128;-70
2022/06/04 05:32:34;;;;;;;6.25;5.43;;;17.20;99.90;;;-146.41;100.00;57768.22;5005518;28;20070;-70
2022/06/04 05:35:02;;;;;;;4.47;3.92;;;17.30;99.90;;;-146.41;100.00;57768.22;5006001;28;20042;-70
2022/06/04 05:37:29;;;;;;;8.45;4.00;;;17.40;99.90;;;-146.41;100.00;57768.22;5007646;28;20058;-70
2022/06/04 05:40:04;;;;;;;5.65;3.30;;;17.60;99.90;;;-146.41;100.00;57768.22;5004582;28;20459;-70
2022/06/04 05:42:31;;;;;;;4.35;3.13;;;17.70;99.90;;;-146.41;100.00;57768.22;5011794;28;20132;-70
2022/06/04 05:45:00;;;;;;;4.70;2.95;;;17.80;99.90;;;-146.41;100.00;57768.22;5008435;28;20073;-70
2022/06/04 05:47:28;;;;;;;5.00;2.65;;;18.00;99.90;;;-146.41;100.00;57768.22;5009833;28;20096;-70
2022/06/04 05:49:55;;;;;;;3.03;2.25;;;18.10;99.90;;;-146.41;100.00;57768.22;5010090;28;20096;-70
2022/06/04 05:52:23;;;;;;;4.35;2.15;;;18.30;99.90;;;-146.41;100.00;57768.22;5008355;28;20104;-70
2022/06/04 05:54:50;;;;;;;3.70;2.90;;;18.40;99.90;;;-146.41;100.00;57768.22;5012368;28;20140;-71
2022/06/04 05:57:18;;;;;;;3.95;2.22;;;18.60;99.90;;;-146.41;100.00;57768.22;5010440;28;20103;-69
2022/06/04 05:59:45;;;;;;;3.67;2.25;;;18.70;99.90;;;-146.41;100.00;57768.22;5013693;28;20080;-71
2022/06/04 06:02:12;;;;;;;5.53;2.40;;;18.80;99.90;;;-146.41;100.00;57768.22;5011529;28;20129;-68
2022/06/04 06:04:39;;;;;;;3.92;2.03;;;18.80;99.90;;;-146.41;100.00;57768.22;5007276;28;20057;-69
2022/06/04 06:07:06;;;;;;;3.38;2.28;;;19.00;99.90;;;-146.41;100.00;57768.22;5008485;28;20053;-68
2022/06/04 06:09:33;;;;;;;5.03;2.70;;;19.10;99.90;;;-146.41;100.00;57768.22;5008783;28;20123;-68
2022/06/04 06:12:01;;;;;;;4.57;2.67;;;19.20;99.90;;;-146.41;100.00;57768.22;5006421;28;20084;-68
2022/06/04 06:14:28;;;;;;;6.63;4.10;;;19.30;99.90;;;-146.41;100.00;57768.22;5007276;28;20058;-71
2022/06/04 06:16:56;;;;;;;5.93;3.85;;;19.30;99.90;;;-146.41;100.00;57768.22;5004794;28;20561;-70
2022/06/04 06:19:23;;;;;;;5.40;4.57;;;19.20;99.90;;;-146.41;100.00;57768.22;5005331;28;20155;-70
2022/06/04 06:21:51;;;;;;;4.85;3.80;;;19.10;99.90;;;-146.41;100.00;57768.22;5014076;28;20077;-70
2022/06/04 06:24:21;;;;;;;5.88;4.10;;;19.10;99.90;;;-146.41;100.00;57768.22;4976694;28;20076;-69
2022/06/04 06:26:54;;;;;;;6.50;3.60;;;19.10;99.90;;;-146.41;100.00;57768.22;5006542;28;20046;-70
2022/06/04 06:29:30;;;;;;;5.28;3.58;;;19.00;99.90;;;-146.41;100.00;57768.22;5009089;28;20052;-71
2022/06/04 06:32:00;;;;;;;5.05;3.45;;;18.80;99.90;;;-146.41;100.00;57768.22;4983042;28;20073;-69
2022/06/04 06:34:27;;;;;;;4.25;3.65;;;18.80;99.90;;;-146.41;100.00;57768.22;5005484;28;20069;-71
2022/06/04 06:36:56;;;;;;;7.85;4.53;;;18.80;99.90;;;-146.41;100.00;57768.22;5008034;28;20077;-69
2022/06/04 06:39:24;;;;;;;6.15;3.90;;;18.90;99.90;;;-146.41;100.00;57768.22;5009054;28;20128;-69
2022/06/04 06:41:51;;;;;;;6.47;5.07;;;18.90;99.90;;;-146.41;100.00;57768.22;5005687;28;20432;-70
2022/06/04 06:44:18;;;;;;;7.38;4.60;;;19.00;99.90;;;-146.41;100.00;57768.22;5009233;28;20115;-70
2022/06/04 06:46:52;;;;;;;5.40;3.95;;;19.20;99.90;;;-146.41;100.00;57768.22;5000724;28;20488;-70
2022/06/04 06:49:24;;;;;;;6.55;4.60;;;19.30;99.90;;;-146.41;100.00;57768.22;5005717;28;20587;-70
2022/06/04 06:51:56;;;;;;;5.67;4.40;;;19.30;99.90;;;-146.41;100.00;57768.22;4986964;28;20168;-70
2022/06/04 06:54:27;;;;;;;6.45;4.53;;;19.30;99.90;;;-146.41;100.00;57768.22;5006416;28;20061;-70
2022/06/04 06:56:56;;;;;;;4.95;4.10;;;19.30;99.90;;;-146.41;100.00;57768.22;5006269;28;20173;-70
2022/06/04 06:59:25;;;;;;;5.88;4.40;;;19.30;99.90;;;-146.41;100.00;57768.22;5009828;28;20062;-70
2022/06/04 07:01:56;;;;;;;5.80;4.63;;;19.50;99.90;;;-146.41;100.00;57768.22;5010674;28;20050;-69
2022/06/04 07:04:25;;;;;;;5.97;4.75;;;19.50;99.90;;;-146.41;100.00;57768.22;5009173;28;20464;-70
2022/06/04 07:06:58;;;;;;;6.85;4.80;;;19.70;99.90;;;-146.41;100.00;57768.22;5007294;28;20096;-70
2022/06/04 07:09:31;;;;;;;;;;;19.90;99.90;;;-146.41;100.00;57768.22;4993777;28;20489;-70
2022/06/04 07:11:58;;;;;;;;;;;20.10;99.90;;;-146.41;100.00;57768.22;5011496;28;19999;-70
2022/06/04 07:14:25;;;;;;;6.15;4.40;;;20.20;99.90;;;-146.41;100.00;57768.22;5009963;28;19936;-70
2022/06/04 07:16:54;;;;;;;8.40;5.50;;;20.30;99.90;;;-146.41;100.00;57768.22;4993071;28;20421;-70
2022/06/04 07:19:22;;;;;;;4.57;3.95;;;20.50;99.90;;;-146.41;100.00;57768.22;5006789;28;20049;-70
2022/06/04 07:21:52;;;;;;;6.97;4.88;;;20.60;99.90;;;-146.41;100.00;57768.22;4989602;28;20096;-70
2022/06/04 07:24:19;;;;;;;4.80;4.25;;;20.70;99.90;;;-146.41;100.00;57768.22;5003084;28;20058;-70
2022/06/04 07:26:47;;;;;;;5.78;3.88;;;20.70;99.90;;;-146.41;100.00;57768.22;5005557;28;20085;-70
2022/06/04 07:29:15;;;;;;;5.72;4.57;;;20.90;99.90;;;-146.41;100.00;57768.22;5006971;28;20480;-70
2022/06/04 07:31:42;;;;;;;6.38;4.78;;;21.10;99.90;;;-146.41;100.00;57768.22;5009209;28;20456;-70
2022/06/04 07:34:09;;;;;;;6.07;3.33;;;21.20;99.90;;;-146.41;100.00;57768.22;5010289;28;20463;-70
2022/06/04 07:36:43;;;;;;;5.82;3.72;;;21.40;99.90;;;-146.41;100.00;57768.22;5006559;28;20700;-70
2022/06/04 07:39:14;;;;;;;9.57;4.45;;;21.60;99.90;;;-146.41;100.00;57768.22;5007044;28;20054;-69
2022/06/04 07:41:44;;;;;;;7.78;3.67;;;21.60;99.90;;;-146.41;100.00;57768.22;5007635;28;20050;-69
2022/06/04 07:44:14;;;;;;;5.63;4.40;;;21.70;99.90;;;-146.41;100.00;57768.22;5009308;28;20129;-70
2022/06/04 07:46:42;;;;;;;7.05;3.30;;;21.80;99.90;;;-146.41;100.00;57768.22;5009014;28;20069;-70
2022/06/04 07:49:11;;;;;;;5.65;3.60;;;21.80;99.90;;;-146.41;100.00;57768.22;5001605;28;20092;-70
2022/06/04 07:51:39;;;;;;;5.68;3.63;;;22.00;99.90;;;-146.41;100.00;57768.22;5009300;28;20133;-70
2022/06/04 07:54:08;;;;;;;4.95;4.45;;;22.20;99.90;;;-146.41;100.00;57768.22;5007434;28;20076;-70
2022/06/04 07:56:37;;;;;;;5.55;3.70;;;22.30;99.90;;;-146.41;100.00;57768.22;5008908;28;20104;-70
2022/06/04 07:59:07;;;;;;;5.00;4.45;;;22.30;99.90;;;-146.41;100.00;57768.22;4992568;28;20050;-70
2022/06/04 08:01:34;;;;;;;5.90;5.10;;;22.20;99.90;;;-146.41;100.00;57768.22;5011241;28;20085;-70
2022/06/04 08:04:02;;;;;;;5.03;4.47;;;22.10;99.90;;;-146.41;100.00;57768.22;5013122;28;20077;-70
2022/06/04 08:06:32;;;;;;;4.85;3.83;;;22.10;99.90;;;-146.41;100.00;57768.22;5008779;28;20062;-70
2022/06/04 08:09:01;;;;;;;6.72;5.15;;;22.10;99.90;;;-146.41;100.00;57768.22;5012433;28;20041;-70
2022/06/04 08:11:31;;;;;;;5.15;3.70;;;22.00;99.90;;;-146.41;100.00;57768.22;5013321;28;20208;-70
2022/06/04 08:14:13;;;;;;;6.72;4.82;;;22.10;99.90;;;-146.41;100.00;57768.22;5012809;28;20057;-70
2022/06/04 08:16:45;;;;;;;5.70;4.95;;;22.10;99.90;;;-146.41;100.00;57768.22;5011892;28;20050;-70
2022/06/04 08:19:13;;;;;;;4.93;3.88;;;22.00;99.90;;;-146.41;100.00;57768.22;5008472;28;20052;-70
2022/06/04 08:21:41;;;;;;;4.40;3.70;;;22.00;99.90;;;-146.41;100.00;57768.22;5017780;28;20136;-70
2022/06/04 08:24:11;;;;;;;4.88;4.38;;;22.10;99.90;;;-146.41;100.00;57768.22;5013961;28;20129;-69
2022/06/04 08:26:42;;;;;;;5.97;4.13;;;22.20;99.90;;;-146.41;100.00;57768.22;5008849;28;20129;-70
2022/06/04 08:29:09;;;;;;;4.70;4.07;;;22.20;99.90;;;-146.41;100.00;57768.22;5007242;28;20129;-70
2022/06/04 08:31:36;;;;;;;3.88;2.85;;;22.20;99.90;;;-146.41;100.00;57768.22;5009338;28;20056;-70
2022/06/04 08:34:03;;;;;;;4.07;2.40;;;22.20;99.90;;;-146.41;100.00;57768.22;5006001;28;20543;-70
2022/06/04 08:36:32;;;;;;;2.50;1.90;;;22.20;99.90;;;-146.41;100.00;57768.22;5008236;28;20049;-70
2022/06/04 08:39:00;;;;;;;3.95;2.40;;;22.30;99.90;;;-146.41;100.00;57768.22;5006879;28;20128;-70
2022/06/04 08:41:27;;;;;;;3.97;2.20;;;22.50;99.90;;;-146.41;100.00;57768.22;5014092;28;20107;-70
2022/06/04 08:43:54;;;;;;;3.33;1.98;;;22.40;99.90;;;-146.41;100.00;57768.22;5018583;28;20236;-70
2022/06/04 08:46:34;;;;;;;3.63;2.00;;;22.50;99.90;;;-146.41;100.00;57768.22;5014963;28;20510;-70
2022/06/04 08:49:13;;;;;;;5.40;2.42;;;22.50;99.90;;;-146.41;100.00;57768.22;5011322;28;20069;-70
2022/06/04 08:51:43;;;;;;;6.15;3.05;;;22.60;99.90;;;-146.41;100.00;57768.22;5000629;28;20054;-70
2022/06/04 09:00:07;;;;;;;6.13;2.67;;;22.80;99.90;;;-146.41;100.00;57768.22;5016558;28;20096;-70
2022/06/04 09:03:35;;;;;;;3.50;2.63;;;23.00;99.90;;;-146.41;100.00;57768.22;5014458;28;20084;-70
2022/06/04 09:06:44;;;;;;;6.85;4.53;;;23.10;99.90;;;-146.41;100.00;57768.22;4897781;29;20056;-70
2022/06/04 09:09:27;;;;;;;7.90;5.25;;;23.20;99.90;;;-146.41;100.00;57768.22;4935311;29;20470;-70
2022/06/04 09:12:29;;;;;;;6.18;5.57;;;23.10;99.90;;;-146.41;100.00;57768.22;4994004;28;20080;-70
2022/06/04 09:15:13;;;;;;;8.60;5.03;;;23.00;99.90;;;-146.41;100.00;57768.22;4963914;28;20128;-70
2022/06/04 09:17:50;;;;;;;6.35;5.00;;;23.10;99.90;;;-146.41;100.00;57768.22;5003761;28;20113;-69
2022/06/04 09:20:39;;;;;;;7.95;5.03;;;23.10;99.90;;;-146.41;100.00;57768.22;4996683;28;20060;-70
2022/06/04 09:23:35;;;;;;;11.18;6.38;;;23.10;99.90;;;-146.41;100.00;57768.22;4998336;28;20519;-70
2022/06/04 09:26:14;;;;;;;6.70;5.32;;;23.20;99.90;;;-146.41;100.00;57768.22;5012933;28;20100;-70
2022/06/04 09:29:22;;;;;;;6.32;4.90;;;23.40;99.90;;;-146.41;100.00;57768.22;5014127;28;20080;-70
2022/06/04 09:31:55;;;;;;;5.97;5.38;;;23.30;99.90;;;-146.41;100.00;57768.22;5013803;28;20508;-70
2022/06/04 09:34:24;;;;;;;5.72;5.00;;;23.40;99.90;;;-146.41;100.00;57768.22;5013422;28;20590;-70
2022/06/04 09:36:51;;;;;;;6.65;4.63;;;23.40;99.90;;;-146.41;100.00;57768.22;5015067;28;20085;-69
2022/06/04 09:39:31;;;;;;;4.93;4.32;;;23.50;99.90;;;-146.41;100.00;57768.22;5014215;28;20092;-69
2022/06/04 09:42:05;;;;;;;7.60;5.60;;;23.50;99.90;;;-146.41;100.00;57768.22;5008502;28;20062;-70
2022/06/04 09:44:38;;;;;;;6.95;5.18;;;23.50;99.90;;;-146.41;100.00;57768.22;5014502;28;20437;-69
2022/06/04 09:47:20;;;;;;;7.93;6.15;;;23.50;99.90;;;-146.41;100.00;57768.22;4997340;28;20160;-69
2022/06/04 09:49:59;;;;;;;7.05;6.35;;;23.20;99.90;;;-146.41;100.00;57768.22;4997116;28;20127;-69
2022/06/04 09:52:42;;;;;;;6.35;5.75;;;23.10;99.90;;;-146.41;100.00;57768.22;4988174;28;20134;-69
2022/06/04 09:55:23;;;;;;;7.93;5.68;;;23.10;99.90;;;-146.41;100.00;57768.22;4997304;28;20070;-69
2022/06/04 09:58:15;;;;;;;6.93;6.30;;;23.00;99.90;;;-146.41;100.00;57768.22;5007307;28;20524;-69
2022/06/04 10:00:57;;;;;;;6.97;6.28;;;23.00;99.90;;;-146.41;100.00;57768.22;5000049;28;20419;-69
2022/06/04 10:03:31;;;;;;;7.25;6.20;;;23.00;99.90;;;-146.41;100.00;57768.22;5007002;28;20081;-69
2022/06/04 10:06:14;;;;;;;7.35;5.68;;;23.10;99.90;;;-146.41;100.00;57768.22;5009087;28;20050;-69
2022/06/04 10:12:15;;;;;;;8.60;5.20;;;23.40;99.90;;;-146.41;100.00;57768.22;4997072;28;20125;-69
2022/06/04 10:14:57;;;;;;;5.68;5.00;;;23.50;99.90;;;-146.41;100.00;57768.22;4997567;28;20049;-70
2022/06/04 10:17:35;;;;;;;;;;;23.70;99.90;;;-146.41;100.00;57768.22;5013317;28;20132;-69
2022/06/04 10:20:03;;;;;;;5.75;4.53;;;23.90;99.90;;;-146.41;100.00;57768.22;5008644;28;19927;-70
2022/06/04 10:22:31;;;;;;;8.98;5.70;;;24.20;99.90;;;-146.41;100.00;57768.22;5008177;28;20140;-69
2022/06/04 10:25:03;;;;;;;10.30;7.28;;;24.40;99.90;;;-146.41;100.00;57768.22;4995271;28;20058;-68
2022/06/04 10:27:48;;;;;;;5.25;3.92;;;24.60;99.90;;;-146.41;100.00;57768.22;4999443;28;20132;-70
2022/06/04 10:30:28;;;;;;;5.93;4.28;;;25.00;99.90;;;-146.41;100.00;57768.22;4992246;28;20161;-70
2022/06/04 10:33:32;;;;;;;8.43;4.60;;;25.40;99.90;;;-146.41;100.00;57768.22;4999733;28;20045;-70
2022/06/04 10:36:08;;;;;;;4.32;3.83;;;25.80;99.90;;;-146.41;100.00;57768.22;5012053;28;20154;-70
2022/06/04 10:38:43;;;;;;;5.00;4.10;;;26.40;99.90;;;-146.41;100.00;57768.22;5009035;28;20057;-70
2022/06/04 10:41:26;;;;;;;6.07;3.90;;;26.70;99.90;;;-146.41;100.00;57768.22;5008403;28;20054;-70